createdAt,value
2019-03-22T00:02:23.812Z,99.90
2019-03-22T00:05:04.810Z,99.90
2019-03-22T00:07:45.516Z,99.90
2019-03-22T00:10:26.379Z,99.90
2019-03-22T00:13:07.470Z,99.90
2019-03-22T00:15:48.613Z,99.90
2019-03-22T00:18:30.066Z,99.90
2019-03-22T00:21:10.754Z,99.90
2019-03-22T00:23:51.828Z,99.90
2019-03-22T00:26:32.736Z,99.90
2019-03-22T00:29:13.397Z,99.90
2019-03-22T00:31:54.148Z,99.90
2019-03-22T00:34:35.259Z,99.90
2019-03-22T00:37:04.841Z,99.90
2019-03-22T00:39:53.178Z,99.90
2019-03-22T00:42:34.441Z,99.90
2019-03-22T00:45:15.118Z,99.90
2019-03-22T00:47:55.938Z,99.90
2019-03-22T00:50:36.924Z,99.90
2019-03-22T00:53:17.765Z,99.90
2019-03-22T00:55:58.585Z,99.90
2019-03-22T00:58:39.434Z,99.90
2019-03-22T01:01:20.828Z,99.90
2019-03-22T01:04:01.788Z,99.90
2019-03-22T01:06:42.524Z,99.90
2019-03-22T01:09:23.356Z,99.90
2019-03-22T01:12:04.112Z,99.90
2019-03-22T01:14:45.412Z,99.90
2019-03-22T01:17:26.228Z,99.90
2019-03-22T01:20:07.009Z,99.90
2019-03-22T01:22:48.025Z,99.90
2019-03-22T01:25:28.735Z,99.90
2019-03-22T01:28:09.632Z,99.90
2019-03-22T01:30:50.872Z,99.90
2019-03-22T01:33:31.621Z,99.90
2019-03-22T01:36:12.464Z,99.90
2019-03-22T01:38:53.383Z,99.90
2019-03-22T01:41:34.093Z,99.90
2019-03-22T01:44:15.209Z,99.90
2019-03-22T01:46:56.031Z,99.90
2019-03-22T01:49:36.575Z,99.90
2019-03-22T01:52:17.209Z,99.90
2019-03-22T01:54:57.795Z,99.90
2019-03-22T01:57:38.548Z,99.90
2019-03-22T02:00:19.555Z,99.90
2019-03-22T02:03:00.242Z,99.90
2019-03-22T02:05:40.718Z,99.90
2019-03-22T02:08:21.392Z,99.90
2019-03-22T02:11:02.704Z,99.90
2019-03-22T02:13:43.663Z,99.90
2019-03-22T02:16:24.449Z,99.90
2019-03-22T02:19:05.200Z,99.90
2019-03-22T02:21:46.065Z,99.90
2019-03-22T02:24:27.040Z,99.90
2019-03-22T02:27:07.964Z,99.90
2019-03-22T02:29:49.205Z,99.90
2019-03-22T02:32:29.973Z,99.90
2019-03-22T02:35:26.944Z,99.90
2019-03-22T02:37:53.833Z,99.90
2019-03-22T02:40:34.840Z,99.90
2019-03-22T02:43:15.861Z,99.90
2019-03-22T02:45:56.955Z,99.90
2019-03-22T02:48:37.767Z,99.90
2019-03-22T02:51:18.461Z,99.90
2019-03-22T02:53:58.973Z,99.90
2019-03-22T02:56:39.970Z,99.90
2019-03-22T02:59:20.741Z,99.90
2019-03-22T03:02:01.892Z,99.90
2019-03-22T03:04:42.661Z,99.90
2019-03-22T03:07:23.472Z,99.90
2019-03-22T03:10:04.266Z,99.90
2019-03-22T03:12:45.186Z,99.90
2019-03-22T03:15:25.968Z,99.90
2019-03-22T03:18:06.564Z,99.90
2019-03-22T03:20:47.398Z,99.90
2019-03-22T03:23:28.429Z,99.90
2019-03-22T03:26:08.990Z,99.90
2019-03-22T03:28:49.810Z,99.90
2019-03-22T03:31:30.698Z,99.90
2019-03-22T03:34:11.784Z,99.90
2019-03-22T03:36:52.748Z,99.90
2019-03-22T03:39:33.196Z,99.90
2019-03-22T03:42:02.604Z,99.90
2019-03-22T03:44:51.030Z,99.90
2019-03-22T03:47:39.433Z,99.90
2019-03-22T03:50:20.465Z,99.90
2019-03-22T03:53:01.041Z,99.90
2019-03-22T03:55:41.786Z,99.90
2019-03-22T03:58:22.480Z,99.90
2019-03-22T04:01:03.251Z,99.90
2019-03-22T04:03:43.808Z,99.90
2019-03-22T04:06:24.466Z,99.90
2019-03-22T04:09:05.151Z,99.90
2019-03-22T04:11:46.056Z,99.90
2019-03-22T04:14:26.650Z,99.90
2019-03-22T04:17:07.164Z,99.90
2019-03-22T04:19:48.122Z,99.90
2019-03-22T04:22:28.764Z,99.90
2019-03-22T04:25:09.680Z,99.90
2019-03-22T04:27:50.565Z,99.90
2019-03-22T04:30:31.355Z,99.90
2019-03-22T04:33:12.224Z,99.90
2019-03-22T04:35:52.953Z,99.90
2019-03-22T04:38:33.940Z,99.90
2019-03-22T04:41:14.806Z,99.90
2019-03-22T04:43:55.506Z,99.90
2019-03-22T04:46:36.431Z,99.90
2019-03-22T04:49:17.296Z,99.90
2019-03-22T04:51:58.197Z,99.90
2019-03-22T04:54:38.937Z,99.90
2019-03-22T04:57:19.728Z,99.90
2019-03-22T05:00:00.604Z,99.90
2019-03-22T05:02:41.013Z,99.90
2019-03-22T05:05:21.892Z,99.90
2019-03-22T05:08:03.130Z,99.90
2019-03-22T05:10:44.026Z,99.90
2019-03-22T05:13:24.792Z,99.90
2019-03-22T05:16:05.505Z,99.90
2019-03-22T05:18:46.365Z,99.90
2019-03-22T05:21:27.419Z,99.90
2019-03-22T05:24:08.016Z,99.90
2019-03-22T05:26:48.881Z,99.90
2019-03-22T05:29:30.806Z,99.90
2019-03-22T05:32:12.011Z,99.90
2019-03-22T05:34:53.062Z,99.90
2019-03-22T05:37:33.808Z,99.90
2019-03-22T05:40:14.749Z,99.90
2019-03-22T05:42:55.588Z,99.90
2019-03-22T05:45:36.519Z,99.90
2019-03-22T05:48:06.076Z,99.90
2019-03-22T05:51:13.552Z,99.90
2019-03-22T05:54:01.895Z,99.90
2019-03-22T05:56:42.738Z,99.90
2019-03-22T05:59:23.691Z,99.90
2019-03-22T06:02:04.266Z,99.90
2019-03-22T06:04:44.619Z,99.90
2019-03-22T06:07:25.248Z,99.90
2019-03-22T06:10:06.108Z,99.90
2019-03-22T06:12:46.764Z,99.90
2019-03-22T06:15:27.412Z,99.90
2019-03-22T06:17:56.992Z,99.90
2019-03-22T06:20:45.405Z,99.90
2019-03-22T06:23:33.812Z,99.90
2019-03-22T06:26:14.963Z,99.90
2019-03-22T06:28:55.833Z,99.90
2019-03-22T06:31:37.205Z,99.90
2019-03-22T06:34:17.656Z,99.90
2019-03-22T06:36:58.268Z,99.90
2019-03-22T06:39:39.131Z,99.90
2019-03-22T06:42:20.336Z,99.90
2019-03-22T06:45:01.696Z,99.90
2019-03-22T06:47:42.369Z,99.90
2019-03-22T06:50:23.196Z,99.90
2019-03-22T06:53:04.036Z,99.90
2019-03-22T06:55:44.892Z,99.90
2019-03-22T06:58:25.752Z,99.90
2019-03-22T07:01:06.498Z,99.90
2019-03-22T07:03:47.756Z,99.90
2019-03-22T07:06:28.495Z,99.90
2019-03-22T07:09:09.160Z,99.90
2019-03-22T07:11:50.141Z,99.90
2019-03-22T07:14:31.161Z,99.90
2019-03-22T07:17:11.536Z,99.90
2019-03-22T07:19:52.183Z,99.90
2019-03-22T07:22:21.663Z,99.90
2019-03-22T07:25:10.176Z,99.90
2019-03-22T07:27:51.276Z,99.90
2019-03-22T07:30:32.189Z,99.90
2019-03-22T07:33:13.100Z,99.90
2019-03-22T07:35:54.109Z,99.90
2019-03-22T07:38:34.736Z,99.90
2019-03-22T07:41:15.624Z,99.90
2019-03-22T07:43:56.624Z,99.90
2019-03-22T07:46:37.420Z,99.90
2019-03-22T07:49:18.151Z,99.90
2019-03-22T07:51:58.936Z,99.90
2019-03-22T07:54:39.765Z,99.90
2019-03-22T07:57:20.976Z,99.90
2019-03-22T08:00:01.920Z,99.90
2019-03-22T08:02:42.747Z,99.90
2019-03-22T08:05:23.731Z,99.90
2019-03-22T08:08:04.081Z,99.90
2019-03-22T08:10:44.871Z,99.90
2019-03-22T08:13:25.800Z,99.90
2019-03-22T08:16:06.420Z,99.90
2019-03-22T08:18:46.869Z,99.90
2019-03-22T08:21:27.498Z,99.90
2019-03-22T08:24:08.594Z,99.90
2019-03-22T08:26:49.411Z,99.90
2019-03-22T08:29:30.172Z,99.90
2019-03-22T08:32:10.847Z,99.90
2019-03-22T08:34:51.718Z,99.90
2019-03-22T08:37:32.759Z,99.90
2019-03-22T08:40:13.689Z,99.90
2019-03-22T08:42:54.137Z,99.90
2019-03-22T08:45:34.536Z,99.30
2019-03-22T08:48:15.224Z,99.20
2019-03-22T08:50:56.164Z,99.00
2019-03-22T08:53:37.019Z,99.90
2019-03-22T08:56:17.785Z,99.30
2019-03-22T08:58:58.752Z,99.40
2019-03-22T09:01:39.556Z,99.90
2019-03-22T09:04:20.365Z,99.90
2019-03-22T09:07:01.509Z,97.70
2019-03-22T09:09:42.369Z,96.80
2019-03-22T09:12:23.268Z,97.00
2019-03-22T09:15:04.198Z,97.00
2019-03-22T09:17:45.157Z,94.40
2019-03-22T09:20:25.848Z,98.50
2019-03-22T09:23:06.755Z,95.60
2019-03-22T09:25:47.527Z,93.10
2019-03-22T09:28:27.872Z,91.10
2019-03-22T09:31:10.486Z,92.50
2019-03-22T09:33:50.844Z,91.90
2019-03-22T09:36:31.819Z,93.50
2019-03-22T09:39:12.376Z,92.10
2019-03-22T09:41:53.329Z,90.90
2019-03-22T09:44:43.117Z,91.80
2019-03-22T09:47:16.687Z,92.60
2019-03-22T09:49:46.493Z,91.20
2019-03-22T09:52:34.990Z,92.30
2019-03-22T09:55:23.481Z,94.70
2019-03-22T09:58:11.907Z,94.60
2019-03-22T10:00:53.032Z,92.50
2019-03-22T10:03:34.099Z,96.90
2019-03-22T10:06:15.149Z,92.10
2019-03-22T10:08:56.493Z,96.60
2019-03-22T10:11:37.588Z,85.10
2019-03-22T10:14:21.301Z,86.60
2019-03-22T10:17:01.815Z,91.00
2019-03-22T10:19:42.368Z,80.70
2019-03-22T10:22:23.090Z,78.50
2019-03-22T10:25:03.730Z,77.50
2019-03-22T10:27:44.468Z,80.60
2019-03-22T10:30:25.615Z,76.90
2019-03-22T10:35:52.127Z,73.40
2019-03-22T10:38:32.567Z,76.10
2019-03-22T10:41:13.426Z,78.90
2019-03-22T10:43:54.275Z,78.10
2019-03-22T10:46:35.102Z,75.60
2019-03-22T10:49:15.896Z,73.20
2019-03-22T10:51:58.161Z,74.70
2019-03-22T10:54:39.503Z,73.50
2019-03-22T10:57:20.228Z,70.00
2019-03-22T11:00:01.008Z,71.90
2019-03-22T11:02:41.560Z,74.20
2019-03-22T11:05:22.161Z,74.90
2019-03-22T11:08:03.012Z,71.30
2019-03-22T11:10:44.290Z,77.50
2019-03-22T11:13:24.945Z,74.60
2019-03-22T11:16:06.001Z,71.60
2019-03-22T11:18:46.796Z,71.20
2019-03-22T11:21:27.652Z,71.60
2019-03-22T11:24:08.648Z,72.10
2019-03-22T11:26:49.538Z,70.90
2019-03-22T11:29:30.628Z,70.30
2019-03-22T11:32:12.801Z,67.40
2019-03-22T11:34:54.305Z,68.80
2019-03-22T11:37:35.040Z,74.40
2019-03-22T11:40:15.808Z,69.30
2019-03-22T11:42:56.844Z,65.70
2019-03-22T11:45:38.264Z,65.80
2019-03-22T11:48:19.820Z,63.10
2019-03-22T11:51:01.007Z,66.20
2019-03-22T11:53:41.828Z,64.50
2019-03-22T11:56:23.053Z,63.60
2019-03-22T11:59:03.770Z,64.20
2019-03-22T12:01:44.195Z,66.30
2019-03-22T12:04:25.021Z,63.60
2019-03-22T12:07:06.018Z,60.00
2019-03-22T12:09:46.887Z,62.80
2019-03-22T12:12:28.087Z,62.60
2019-03-22T12:15:09.028Z,56.60
2019-03-22T12:17:49.669Z,57.80
2019-03-22T12:20:30.535Z,59.20
2019-03-22T12:23:10.974Z,56.60
2019-03-22T12:25:51.484Z,57.50
2019-03-22T12:28:32.337Z,56.00
2019-03-22T12:31:13.024Z,58.20
2019-03-22T12:33:42.604Z,57.00
2019-03-22T12:36:31.016Z,57.80
2019-03-22T12:39:19.449Z,58.60
2019-03-22T12:42:00.789Z,57.50
2019-03-22T12:44:41.654Z,57.30
2019-03-22T12:47:22.241Z,52.80
2019-03-22T12:50:03.184Z,52.60
2019-03-22T12:52:43.868Z,51.80
2019-03-22T12:55:24.550Z,53.60
2019-03-22T12:58:05.136Z,55.70
2019-03-22T13:00:45.656Z,54.30
2019-03-22T13:03:26.440Z,51.60
2019-03-22T13:06:07.116Z,50.20
2019-03-22T13:08:47.939Z,47.20
2019-03-22T13:11:28.568Z,49.60
2019-03-22T13:14:09.400Z,50.30
2019-03-22T13:16:50.240Z,52.30
2019-03-22T13:19:31.107Z,49.60
2019-03-22T13:22:11.976Z,49.80
2019-03-22T13:24:52.796Z,49.50
2019-03-22T13:27:33.599Z,49.70
2019-03-22T13:30:14.485Z,51.40
2019-03-22T13:32:55.020Z,50.40
2019-03-22T13:35:35.723Z,49.80
2019-03-22T13:38:16.567Z,49.30
2019-03-22T13:40:57.141Z,48.90
2019-03-22T13:43:38.026Z,50.10
2019-03-22T13:46:18.817Z,52.90
2019-03-22T13:48:59.662Z,56.10
2019-03-22T13:51:40.442Z,53.60
2019-03-22T13:54:21.265Z,52.90
2019-03-22T13:57:02.133Z,51.90
2019-03-22T13:59:43.205Z,50.50
2019-03-22T14:02:23.969Z,51.00
2019-03-22T14:05:04.989Z,52.30
2019-03-22T14:07:45.708Z,52.90
2019-03-22T14:10:26.583Z,50.80
2019-03-22T14:12:56.140Z,48.80
2019-03-22T14:15:44.545Z,48.50
2019-03-22T14:18:32.905Z,50.00
2019-03-22T14:21:13.761Z,51.70
2019-03-22T14:23:54.761Z,50.50
2019-03-22T14:26:35.867Z,46.50
2019-03-22T14:29:16.734Z,46.00
2019-03-22T14:31:57.492Z,44.60
2019-03-22T14:34:38.352Z,44.70
2019-03-22T14:37:19.332Z,43.70
2019-03-22T14:40:00.128Z,42.80
2019-03-22T14:42:40.701Z,44.90
2019-03-22T14:45:21.282Z,43.60
2019-03-22T14:48:02.092Z,41.70
2019-03-22T14:50:42.852Z,42.10
2019-03-22T14:53:23.495Z,40.70
2019-03-22T14:56:04.081Z,39.70
2019-03-22T14:58:44.900Z,39.90
2019-03-22T15:01:25.875Z,39.80
2019-03-22T15:04:06.628Z,40.70
2019-03-22T15:06:47.211Z,38.00
2019-03-22T15:09:27.928Z,36.90
2019-03-22T15:12:08.695Z,37.60
2019-03-22T15:15:08.517Z,36.30
2019-03-22T15:23:38.278Z,35.80
2019-03-22T15:26:37.692Z,34.90
2019-03-22T15:29:37.278Z,35.60
2019-03-22T15:32:30.301Z,37.40
2019-03-22T15:35:35.941Z,36.50
2019-03-22T15:38:35.538Z,38.40
2019-03-22T15:41:16.015Z,39.70
2019-03-22T15:43:57.137Z,38.50
2019-03-22T15:46:38.105Z,35.50
2019-03-22T15:49:07.729Z,35.90
2019-03-22T15:51:56.245Z,37.90
2019-03-22T15:54:37.298Z,37.70
2019-03-22T15:57:17.827Z,39.20
2019-03-22T15:59:58.489Z,40.30
2019-03-22T16:02:39.228Z,41.00
2019-03-22T16:05:20.435Z,43.40
2019-03-22T16:08:01.314Z,44.90
2019-03-22T16:10:42.121Z,45.90
2019-03-22T16:13:22.844Z,46.80
2019-03-22T16:16:03.461Z,46.80
2019-03-22T16:18:44.097Z,47.70
2019-03-22T16:21:24.646Z,48.60
2019-03-22T16:24:05.116Z,48.10
2019-03-22T16:26:45.725Z,48.40
2019-03-22T16:29:26.852Z,48.90
2019-03-22T16:32:07.828Z,49.40
2019-03-22T16:34:48.791Z,49.30
2019-03-22T16:37:29.543Z,50.30
2019-03-22T16:40:10.206Z,50.30
2019-03-22T16:42:50.923Z,50.80
2019-03-22T16:45:31.582Z,51.10
2019-03-22T16:48:12.210Z,51.80
2019-03-22T16:50:52.882Z,52.10
2019-03-22T16:53:33.922Z,51.70
2019-03-22T16:56:14.782Z,52.10
2019-03-22T16:58:55.756Z,52.50
2019-03-22T17:01:36.591Z,53.60
2019-03-22T17:04:17.337Z,53.90
2019-03-22T17:06:58.182Z,55.00
2019-03-22T17:09:39.073Z,56.10
2019-03-22T17:12:19.776Z,56.40
2019-03-22T17:15:00.898Z,56.30
2019-03-22T17:17:42.192Z,56.90
2019-03-22T17:20:23.024Z,57.30
2019-03-22T17:23:03.762Z,57.20
2019-03-22T17:25:44.911Z,57.50
2019-03-22T17:28:26.027Z,59.40
2019-03-22T17:31:06.888Z,60.40
2019-03-22T17:33:47.501Z,59.90
2019-03-22T17:36:28.316Z,60.30
2019-03-22T17:39:08.829Z,61.00
2019-03-22T17:41:49.578Z,62.30
2019-03-22T17:44:30.438Z,61.90
2019-03-22T17:47:11.366Z,63.60
2019-03-22T17:49:52.020Z,63.90
2019-03-22T17:52:32.848Z,64.70
2019-03-22T17:55:13.360Z,64.40
2019-03-22T17:57:54.085Z,64.40
2019-03-22T18:00:34.997Z,64.30
2019-03-22T18:03:16.188Z,65.00
2019-03-22T18:05:56.657Z,63.40
2019-03-22T18:08:37.457Z,63.90
2019-03-22T18:11:18.308Z,64.00
2019-03-22T18:13:59.164Z,63.50
2019-03-22T18:16:40.045Z,62.80
2019-03-22T18:19:09.534Z,63.50
2019-03-22T18:21:57.952Z,64.50
2019-03-22T18:24:46.309Z,66.30
2019-03-22T18:27:27.404Z,68.00
2019-03-22T18:30:07.896Z,71.60
2019-03-22T18:32:48.888Z,69.60
2019-03-22T18:35:29.366Z,65.40
2019-03-22T18:37:58.951Z,66.50
2019-03-22T18:40:47.353Z,67.80
2019-03-22T18:43:35.780Z,66.80
2019-03-22T18:46:17.003Z,65.50
2019-03-22T18:48:57.841Z,68.00
2019-03-22T18:51:38.452Z,68.60
2019-03-22T18:54:18.792Z,67.20
2019-03-22T18:56:59.244Z,66.80
2019-03-22T18:59:40.085Z,67.80
2019-03-22T19:02:21.369Z,67.30
2019-03-22T19:05:02.507Z,69.80
2019-03-22T19:07:43.000Z,71.00
2019-03-22T19:10:23.610Z,71.00
2019-03-22T19:13:04.032Z,71.00
2019-03-22T19:15:44.594Z,70.80
2019-03-22T19:18:25.472Z,72.20
2019-03-22T19:21:06.696Z,72.60
2019-03-22T19:23:47.836Z,73.10
2019-03-22T19:26:30.483Z,72.30
2019-03-22T19:29:11.056Z,72.00
2019-03-22T19:31:51.437Z,72.70
2019-03-22T19:34:31.972Z,73.60
2019-03-22T19:37:13.204Z,74.20
2019-03-22T19:39:53.908Z,74.00
2019-03-22T19:42:34.361Z,74.60
2019-03-22T19:45:16.618Z,75.80
2019-03-22T19:47:57.352Z,74.00
2019-03-22T19:50:38.351Z,70.70
2019-03-22T19:53:19.856Z,70.10
2019-03-22T19:56:00.989Z,68.80
2019-03-22T19:58:42.069Z,69.10
2019-03-22T20:01:22.816Z,71.10
2019-03-22T20:04:03.569Z,72.40
2019-03-22T20:06:44.419Z,73.10
2019-03-22T20:09:25.380Z,73.20
2019-03-22T20:12:06.076Z,72.20
2019-03-22T20:14:46.984Z,73.10
2019-03-22T20:17:27.744Z,73.40
2019-03-22T20:20:08.505Z,74.10
2019-03-22T20:22:49.512Z,74.30
2019-03-22T20:25:30.057Z,73.70
2019-03-22T20:28:11.021Z,74.40
2019-03-22T20:30:51.993Z,75.00
2019-03-22T20:33:32.735Z,75.30
2019-03-22T20:36:13.474Z,76.80
2019-03-22T20:38:54.472Z,77.40
2019-03-22T20:41:35.241Z,78.50
2019-03-22T20:44:15.948Z,81.00
2019-03-22T20:46:56.747Z,80.70
2019-03-22T20:49:37.442Z,80.10
2019-03-22T20:52:18.174Z,80.30
2019-03-22T20:54:59.224Z,80.40
2019-03-22T20:57:40.044Z,81.40
2019-03-22T21:00:20.919Z,81.30
2019-03-22T21:03:01.581Z,84.30
2019-03-22T21:05:42.424Z,84.40
2019-03-22T21:08:23.240Z,84.50
2019-03-22T21:11:04.128Z,86.60
2019-03-22T21:13:44.884Z,85.50
2019-03-22T21:16:25.799Z,84.50
2019-03-22T21:19:06.864Z,84.70
2019-03-22T21:21:47.784Z,85.40
2019-03-22T21:24:28.668Z,85.50
2019-03-22T21:27:15.586Z,86.00
2019-03-22T21:29:52.679Z,86.90
2019-03-22T21:32:33.496Z,87.90
2019-03-22T21:35:22.544Z,90.10
2019-03-22T21:37:57.112Z,90.70
2019-03-22T21:40:38.054Z,90.10
2019-03-22T21:43:18.455Z,91.30
2019-03-22T21:45:59.494Z,92.50
2019-03-22T21:48:40.060Z,92.90
2019-03-22T21:51:22.010Z,94.30
2019-03-22T21:54:02.872Z,94.70
2019-03-22T21:56:43.467Z,96.20
2019-03-22T21:59:24.303Z,96.50
2019-03-22T22:02:05.238Z,96.90
2019-03-22T22:04:46.256Z,98.30
2019-03-22T22:07:27.062Z,98.50
2019-03-22T22:10:07.933Z,97.90
2019-03-22T22:12:48.696Z,96.00
2019-03-22T22:15:29.150Z,94.00
2019-03-22T22:18:09.858Z,91.70
2019-03-22T22:20:51.054Z,92.00
2019-03-22T22:23:31.782Z,93.30
2019-03-22T22:26:12.448Z,95.00
2019-03-22T22:28:53.338Z,97.10
2019-03-22T22:31:22.823Z,97.40
2019-03-22T22:34:11.259Z,96.80
2019-03-22T22:36:59.668Z,95.40
2019-03-22T22:39:40.789Z,95.30
2019-03-22T22:42:21.206Z,95.40
2019-03-22T22:45:01.588Z,95.20
2019-03-22T22:47:42.319Z,95.70
2019-03-22T22:50:22.688Z,97.30
2019-03-22T22:52:52.229Z,98.40
2019-03-22T22:55:40.892Z,98.50
2019-03-22T22:58:29.389Z,98.30
2019-03-22T23:01:10.098Z,98.10
2019-03-22T23:03:50.554Z,97.90
2019-03-22T23:06:32.515Z,98.40
2019-03-22T23:09:02.028Z,99.10
2019-03-22T23:11:50.446Z,99.70
2019-03-22T23:14:31.393Z,99.90
2019-03-22T23:17:12.303Z,99.90
2019-03-22T23:19:53.430Z,99.90
2019-03-22T23:22:34.230Z,99.90
2019-03-22T23:25:15.205Z,99.90
2019-03-22T23:27:56.045Z,99.90
2019-03-22T23:30:36.513Z,99.90
2019-03-22T23:33:17.193Z,99.90
2019-03-22T23:36:00.701Z,99.90
2019-03-22T23:38:41.297Z,99.90
2019-03-22T23:41:22.557Z,99.50
2019-03-22T23:44:03.566Z,97.90
2019-03-22T23:46:44.384Z,99.30
2019-03-22T23:49:25.070Z,98.90
2019-03-22T23:52:05.947Z,99.00
2019-03-22T23:54:46.849Z,99.90
2019-03-22T23:57:27.734Z,99.90
